CheckWX is a tool to help pilots better visualize weather data.  It is not intended as a substitute for an official pre-flight weather briefing.

07:12:29 UTC

CYWK TAF
Wabush Airport
Wabush, Canada
TAF CYWK 200138Z 2002/2014 VRB03KT P6SM SCT030 BKN100 TEMPO 2002/2009 5SM -SHRA BR BKN020 OVC060 BECMG 2002/2004 VRB03KT FM200900 VRB03KT P6SM BKN050 BKN110 TEMPO 2009/2014 P6SM -SHRA SCT008 BKN020 BKN050 RMK NXT FCST BY 200800Z

Jun-20@
02:00 UTC

Jun-20 @ 02:00 UTC

Jun-20@
14:00 UTC

Jun-20 @ 14:00 UTC

TAF CYWK 200138Z 2002/2014 VRB03KT P6SM SCT030 BKN100
Wind
  • Variable at 3 KTS
Cloud Levels
  • Scattered at 3,000' AGL
  • Broken at 10,000' AGL

Jun-20@
02:00 UTC

Jun-20 @ 02:00 UTC

Jun-20@
09:00 UTC

Jun-20 @ 09:00 UTC

TEMPO 2002/2009 5SM -SHRA BR BKN020 OVC060

Temporary

Temporary Changes expected for less than half the time period

Conditions
Light Rain, Mist
Cloud Levels
  • Broken at 2,000' AGL
  • Overcast at 6,000' AGL

Jun-20@
02:00 UTC

Jun-20 @ 02:00 UTC

Jun-20@
09:00 UTC

Jun-20 @ 09:00 UTC

BECMG 2002/2004 VRB03KT

Becoming

Becoming Conditions expected by Thu, Jun 20, 2019 @ 04:00 UTC

Wind
  • Variable at 3 KTS
Cloud Levels
  • Scattered at 3,000' AGL
  • Broken at 10,000' AGL

Jun-20@
09:00 UTC

Jun-20 @ 09:00 UTC

Jun-20@
14:00 UTC

Jun-20 @ 14:00 UTC

FM200900 VRB03KT P6SM BKN050 BKN110

From

From Standard forecast or significant change

Wind
  • Variable at 3 KTS
Cloud Levels
  • Broken at 5,000' AGL
  • Broken at 11,000' AGL

Jun-20@
09:00 UTC

Jun-20 @ 09:00 UTC

Jun-20@
14:00 UTC

Jun-20 @ 14:00 UTC

TEMPO 2009/2014 P6SM -SHRA SCT008 BKN020 BKN050 RMK NXT FCST BY 200800Z

Temporary

Temporary Changes expected for less than half the time period

Conditions
Light Rain
Cloud Levels
  • Scattered at 800' AGL
  • Broken at 2,000' AGL
  • Broken at 5,000' AGL